Time;durP1;ratioP1;P1;durP2;ratioP2;P2;SDS_P1;SDS_P2;PMS_P1;PMS_P2;Temp;Humidity;BMP_temperature;BMP_pressure;BME280_temperature;BME280_humidity;BME280_pressure;Samples;Min_cycle;Max_cycle;Signal;HPM_P1;HPM_P2
2022/09/17 00:00:59;;;;;;;;;;;;;;;20.35;51.48;99582.93;2360284;75;50620;-77
2022/09/17 00:04:03;;;;;;;;;;;;;;;20.34;51.49;99583.95;2318714;76;50383;-78
2022/09/17 00:07:04;;;;;;;;;;;;;;;20.35;51.50;99588.30;2318922;76;50366;-78
2022/09/17 00:10:06;;;;;;;;;;;;;;;20.34;51.51;99594.70;2319129;76;49563;-77
2022/09/17 00:13:07;;;;;;;;;;;;;;;20.32;51.51;99597.63;2289384;76;51589;-77
2022/09/17 00:16:09;;;;;;;;;;;;;;;20.33;51.48;99594.41;2279070;78;51510;-78
2022/09/17 00:19:21;;;;;;;;;;;;;;;20.34;51.49;99600.89;2279146;76;51506;-77
2022/09/17 00:22:23;;;;;;;;;;;;;;;20.33;51.46;99608.66;2278930;78;50307;-78
2022/09/17 00:25:24;;;;;;;;;;;;;;;20.34;51.47;99613.50;2278590;77;50481;-78
2022/09/17 00:28:26;;;;;;;;;;;;;;;20.32;51.50;99611.55;2279203;78;50682;-79
2022/09/17 00:31:28;;;;;;;;;;;;;;;20.31;51.48;99614.77;2279307;77;50639;-78
2022/09/17 00:34:29;;;;;;;;;;;;;;;20.32;51.47;99620.46;2284649;77;51280;-78
2022/09/17 00:37:31;;;;;;;;;;;;;;;20.31;51.51;99626.86;2279000;78;51510;-78
2022/09/17 00:40:33;;;;;;;;;;;;;;;20.32;51.49;99623.64;2290464;76;50341;-77
2022/09/17 00:43:41;;;;;;;;;;;;;;;20.31;51.48;99614.77;2290622;76;51519;-78
2022/09/17 00:46:43;;;;;;;;;;;;;;;20.31;51.49;99624.70;2286570;77;51032;-78
2022/09/17 00:49:45;;;;;;;;;;;;;;;20.31;51.49;99626.04;2287350;78;51523;-78
2022/09/17 00:52:48;;;;;;;;;;;;;;;20.30;51.50;99629.25;2287235;78;51464;-78
2022/09/17 00:55:51;;;;;;;;;;;;;;;20.29;51.52;99626.25;2287061;77;50924;-78
2022/09/17 00:58:52;;;;;;;;;;;;;;;20.28;51.52;99621.92;2261247;78;49500;-78
2022/09/17 01:01:54;;;;;;;;;;;;;;;20.29;51.52;99633.48;2287446;78;51555;-78
2022/09/17 01:04:56;;;;;;;;;;;;;;;20.29;51.50;99635.65;2287912;77;51506;-77
2022/09/17 01:07:59;;;;;;;;;;;;;;;20.28;51.50;99637.23;2287339;78;51388;-78
2022/09/17 01:11:02;;;;;;;;;;;;;;;20.28;51.53;99638.57;2262464;77;51932;-77
2022/09/17 01:14:05;;;;;;;;;;;;;;;20.29;51.49;99634.83;2297004;77;51635;-77
2022/09/17 01:17:24;;;;;;;;;;;;;;;20.28;51.46;99643.95;2297234;76;52252;-77
2022/09/17 01:20:39;;;;;;;;;;;;;;;20.27;51.51;99644.97;2297122;77;51646;-77
2022/09/17 01:23:45;;;;;;;;;;;;;;;20.26;51.53;99653.55;2287165;76;52026;-77
2022/09/17 01:26:51;;;;;;;;;;;;;;;20.28;51.47;99656.03;2323123;74;50809;-77
2022/09/17 01:29:54;;;;;;;;;;;;;;;20.26;51.50;99655.42;2317604;76;50804;-77
2022/09/17 01:33:03;;;;;;;;;;;;;;;20.26;51.50;99656.77;2265446;76;52624;-77
2022/09/17 01:36:16;;;;;;;;;;;;;;;20.26;51.51;99663.48;2293487;76;50998;-78
2022/09/17 01:39:25;;;;;;;;;;;;;;;20.25;51.49;99661.84;2317567;76;51592;-78
2022/09/17 01:42:38;;;;;;;;;;;;;;;20.25;51.50;99653.79;2317353;76;50459;-78
2022/09/17 01:45:41;;;;;;;;;;;;;;;20.25;51.50;99658.64;2288420;76;50868;-78
2022/09/17 01:48:43;;;;;;;;;;;;;;;20.24;51.51;99665.03;2318875;76;50776;-78
2022/09/17 01:51:46;;;;;;;;;;;;;;;20.23;51.51;99662.05;2318748;76;50422;-78
2022/09/17 01:54:48;;;;;;;;;;;;;;;20.24;51.49;99666.37;2318427;76;51515;-78
2022/09/17 01:57:51;;;;;;;;;;;;;;;20.23;51.51;99672.27;2318790;76;50781;-78
2022/09/17 02:00:54;;;;;;;;;;;;;;;20.22;51.50;99673.85;2323015;76;51020;-78
2022/09/17 02:03:58;;;;;;;;;;;;;;;20.21;51.53;99676.21;2318624;76;50156;-78
2022/09/17 02:07:01;;;;;;;;;;;;;;;20.23;51.50;99670.11;2318872;76;50387;-77
2022/09/17 02:10:04;;;;;;;;;;;;;;;20.22;51.50;99677.35;2318053;75;50298;-78
2022/09/17 02:13:07;;;;;;;;;;;;;;;20.21;51.49;99674.34;2278240;76;49599;-78
2022/09/17 02:16:16;;;;;;;;;;;;;;;20.22;51.51;99678.70;2317491;76;50685;-78
2022/09/17 02:19:19;;;;;;;;;;;;;;;20.21;51.49;99678.90;2317650;76;50777;-78
2022/09/17 02:22:22;;;;;;;;;;;;;;;20.21;51.51;99681.06;2317649;76;51541;-78
2022/09/17 02:25:28;;;;;;;;;;;;;;;20.21;51.50;99688.30;2319267;76;51919;-78
2022/09/17 02:28:31;;;;;;;;;;;;;;;20.20;51.49;99682.11;2317588;76;50150;-78
2022/09/17 02:31:33;;;;;;;;;;;;;;;20.20;51.49;99682.11;2317617;76;50513;-77
2022/09/17 02:34:35;;;;;;;;;;;;;;;20.19;51.51;99681.82;2317210;76;50429;-77
2022/09/17 02:37:36;;;;;;;;;;;;;;;20.16;51.55;99679.55;2322682;76;51307;-78
2022/09/17 02:40:40;;;;;;;;;;;;;;;20.18;51.55;99684.71;2317298;76;51617;-77
2022/09/17 02:43:43;;;;;;;;;;;;;;;20.18;51.50;99678.81;2311440;76;51539;-78
2022/09/17 02:46:49;;;;;;;;;;;;;;;20.18;51.48;99678.81;2325575;76;51475;-78
2022/09/17 02:50:01;;;;;;;;;;;;;;;20.16;51.51;99678.20;2249400;76;52006;-78
2022/09/17 02:53:10;;;;;;;;;;;;;;;20.16;51.51;99680.89;2325471;76;50486;-78
2022/09/17 02:56:12;;;;;;;;;;;;;;;;;;2325454;76;50792;-78
2022/09/17 02:59:15;;;;;;;;;;;;;;;20.15;51.49;99671.20;2325690;76;50368;-78
2022/09/17 03:02:18;;;;;;;;;;;;;;;20.16;51.47;99672.83;2325610;76;52979;-78
2022/09/17 03:05:20;;;;;;;;;;;;;;;20.15;51.50;99672.54;2291672;76;51367;-77
2022/09/17 03:08:24;;;;;;;;;;;;;;;20.14;51.52;99670.91;2325601;76;50429;-78
2022/09/17 03:11:26;;;;;;;;;;;;;;;20.14;51.49;99670.91;2324337;76;51665;-78
2022/09/17 03:14:27;;;;;;;;;;;;;;;20.14;51.50;99666.88;2298281;76;50649;-78
2022/09/17 03:17:29;;;;;;;;;;;;;;;20.15;51.50;99665.83;2317338;76;51619;-77
2022/09/17 03:20:31;;;;;;;;;;;;;;;20.15;51.48;99669.03;2317499;76;50415;-78
2022/09/17 03:23:32;;;;;;;;;;;;;;;20.12;51.48;99665.45;2317486;76;50361;-78
2022/09/17 03:26:34;;;;;;;;;;;;;;;20.10;51.53;99671.02;2317460;76;50223;-77
2022/09/17 03:29:35;;;;;;;;;;;;;;;20.13;51.50;99665.73;2283628;76;51032;-78
2022/09/17 03:32:37;;;;;;;;;;;;;;;20.14;51.47;99672.75;2319485;76;51091;-78
2022/09/17 03:35:40;;;;;;;;;;;;;;;20.14;51.49;99668.22;2302430;75;51559;-79
2022/09/17 03:38:42;;;;;;;;;;;;;;;20.14;51.46;99676.28;2374252;74;51524;-77
2022/09/17 03:41:43;;;;;;;;;;;;;;;20.12;51.46;99667.61;2376260;75;50976;-77
2022/09/17 03:44:45;;;;;;;;;;;;;;;20.13;51.46;99673.80;2374022;74;51488;-77
2022/09/17 03:47:47;;;;;;;;;;;;;;;20.13;51.45;99673.27;2374260;75;50225;-78
2022/09/17 03:50:49;;;;;;;;;;;;;;;20.12;51.49;99676.19;2374219;75;51613;-78
2022/09/17 03:53:50;;;;;;;;;;;;;;;20.13;51.47;99676.48;2375855;74;50983;-78
2022/09/17 03:56:52;;;;;;;;;;;;;;;20.12;51.49;99680.22;2374241;74;51406;-78
2022/09/17 03:59:53;;;;;;;;;;;;;;;20.12;51.46;99685.59;2374204;75;50446;-78
2022/09/17 04:02:55;;;;;;;;;;;;;;;20.12;51.43;99686.41;2374076;75;50434;-78
2022/09/17 04:05:59;;;;;;;;;;;;;;;20.11;51.48;99684.74;2289332;75;49626;-78
2022/09/17 04:09:04;;;;;;;;;;;;;;;20.12;51.44;99686.94;2318095;76;23197;-78
2022/09/17 04:12:05;;;;;;;;;;;;;;;20.10;51.47;99688.48;2317800;76;51541;-78
2022/09/17 04:15:07;;;;;;;;;;;;;;;20.09;51.51;99688.19;2317355;76;51553;-78
2022/09/17 04:18:09;;;;;;;;;;;;;;;20.09;51.49;99690.03;2317650;76;53800;-78
2022/09/17 04:21:10;;;;;;;;;;;;;;;20.08;51.45;99693.23;2318046;76;51542;-78
2022/09/17 04:24:12;;;;;;;;;;;;;;;20.07;51.47;99691.61;2317497;76;51458;-78
2022/09/17 04:27:14;;;;;;;;;;;;;;;20.07;51.53;99688.92;2317966;76;51550;-78
2022/09/17 04:30:15;;;;;;;;;;;;;;;20.07;51.48;99696.16;2319996;76;50957;-79
2022/09/17 04:33:17;;;;;;;;;;;;;;;20.07;51.48;99689.45;2315570;76;50339;-79
2022/09/17 04:36:18;;;;;;;;;;;;;;;20.06;51.49;99695.31;2338578;75;50680;-78
2022/09/17 04:39:20;;;;;;;;;;;;;;;20.07;51.47;99691.61;2318118;76;50782;-78
2022/09/17 04:42:22;;;;;;;;;;;;;;;20.07;51.47;99690.78;2283828;76;52595;-79
2022/09/17 04:45:23;;;;;;;;;;;;;;;20.09;51.44;99695.40;2283164;76;50169;-77
2022/09/17 04:48:25;;;;;;;;;;;;;;;20.07;51.45;99698.84;2317513;76;50712;-77
2022/09/17 04:51:26;;;;;;;;;;;;;;;20.06;51.45;99696.66;2317824;76;51529;-78
2022/09/17 04:54:28;;;;;;;;;;;;;;;20.04;51.47;99696.56;2319571;76;50108;-77
2022/09/17 04:57:29;;;;;;;;;;;;;;;20.03;51.44;99695.75;2317791;76;51514;-77
2022/09/17 05:00:31;;;;;;;;;;;;;;;20.06;51.47;99695.84;2317616;76;51549;-78
2022/09/17 05:03:33;;;;;;;;;;;;;;;20.05;51.46;99696.36;2316415;76;51502;-78
2022/09/17 05:06:34;;;;;;;;;;;;;;;20.03;51.48;99702.46;2291061;75;49565;-77
2022/09/17 05:09:36;;;;;;;;;;;;;;;20.05;51.47;99704.94;2267786;78;50442;-78
2022/09/17 05:12:37;;;;;;;;;;;;;;;20.04;51.45;99713.52;2267714;78;50194;-78
2022/09/17 05:15:39;;;;;;;;;;;;;;;20.03;51.49;99710.52;2267466;78;50652;-78
2022/09/17 05:18:40;;;;;;;;;;;;;;;20.04;51.47;99714.87;2231184;78;51814;-78
2022/09/17 05:21:42;;;;;;;;;;;;;;;20.02;51.48;99716.94;2267628;78;51552;-77
2022/09/17 05:24:44;;;;;;;;;;;;;;;20.02;51.46;99715.59;2267502;78;50612;-77
2022/09/17 05:27:49;;;;;;;;;;;;;;;20.03;51.51;99723.94;2267751;78;51500;-77
2022/09/17 05:30:48;;;;;;;;;;;;;;;20.02;51.48;99725.00;2268560;76;22307;-77
2022/09/17 05:33:50;;;;;;;;;;;;;;;20.02;51.52;99723.66;2273201;76;50385;-78
2022/09/17 05:36:52;;;;;;;;;;;;;;;20.02;51.44;99733.05;2302982;76;50732;-78
2022/09/17 05:39:53;;;;;;;;;;;;;;;20.03;51.48;99730.66;2314169;77;50683;-78
2022/09/17 05:42:58;;;;;;;;;;;;;;;20.01;51.47;99726.02;2316379;76;51037;-78
2022/09/17 05:46:01;;;;;;;;;;;;;;;20.02;51.49;99735.73;2314084;77;51521;-77
2022/09/17 05:49:03;;;;;;;;;;;;;;;20.00;51.49;99731.91;2314405;77;50387;-78
2022/09/17 05:52:05;;;;;;;;;;;;;;;20.00;51.50;99735.13;2314201;77;51618;-78
2022/09/17 05:55:07;;;;;;;;;;;;;;;19.99;51.47;99736.98;2316185;76;50819;-77
2022/09/17 05:58:10;;;;;;;;;;;;;;;20.01;51.45;99738.09;2314199;77;51620;-77
2022/09/17 06:01:15;;;;;;;;;;;;;;;20.00;51.46;99737.80;2312846;76;51603;-78
2022/09/17 06:04:14;;;;;;;;;;;;;;;20.00;51.50;99743.17;2280714;76;22381;-77
2022/09/17 06:07:16;;;;;;;;;;;;;;;19.99;51.50;99745.56;2262071;78;49519;-77
2022/09/17 06:10:17;;;;;;;;;;;;;;;20.00;51.48;99741.84;2237175;79;50953;-77
2022/09/17 06:13:19;;;;;;;;;;;;;;;19.99;51.51;99744.23;2250709;79;50725;-78
2022/09/17 06:16:21;;;;;;;;;;;;;;;19.97;51.54;99751.66;2286907;76;50360;-78
2022/09/17 06:19:23;;;;;;;;;;;;;;;19.98;51.52;99757.33;2283760;76;50973;-78
2022/09/17 06:22:24;;;;;;;;;;;;;;;19.98;51.50;99756.80;2317812;76;50228;-77
2022/09/17 06:25:26;;;;;;;;;;;;;;;19.99;51.49;99757.65;2317225;76;50136;-78
2022/09/17 06:28:27;;;;;;;;;;;;;;;19.98;51.46;99758.14;2317793;76;50252;-77
2022/09/17 06:31:29;;;;;;;;;;;;;;;19.97;51.48;99768.59;2291903;76;50968;-77
2022/09/17 06:34:30;;;;;;;;;;;;;;;19.99;51.46;99769.73;2311859;76;50597;-78
2022/09/17 06:37:32;;;;;;;;;;;;;;;19.97;51.52;99769.12;2317841;76;51522;-78
2022/09/17 06:40:34;;;;;;;;;;;;;;;19.98;51.51;99769.41;2317711;76;51572;-77
2022/09/17 06:43:35;;;;;;;;;;;;;;;19.96;51.50;99766.95;2319507;76;51033;-78
2022/09/17 06:46:37;;;;;;;;;;;;;;;19.97;51.47;99762.41;2317639;76;50670;-78
2022/09/17 06:49:38;;;;;;;;;;;;;;;19.98;51.49;99766.73;2317869;76;51519;-78
2022/09/17 06:52:42;;;;;;;;;;;;;;;19.98;51.49;99771.57;2317805;76;50697;-78
2022/09/17 06:55:43;;;;;;;;;;;;;;;20.00;51.41;99772.71;2293424;76;52532;-77
2022/09/17 06:58:45;;;;;;;;;;;;;;;19.97;51.49;99774.48;2317815;76;51445;-78
2022/09/17 07:01:47;;;;;;;;;;;;;;;19.96;51.52;99782.22;2299746;76;50690;-78
2022/09/17 07:04:48;;;;;;;;;;;;;;;19.97;51.50;99780.67;2286692;77;51510;-78
2022/09/17 07:07:50;;;;;;;;;;;;;;;19.97;51.51;99780.67;2260864;78;50042;-78
2022/09/17 07:10:54;;;;;;;;;;;;;;;19.98;51.49;99779.63;2287303;77;50805;-78
2022/09/17 07:13:55;;;;;;;;;;;;;;;19.97;51.51;99781.20;2287009;76;50120;-78
2022/09/17 07:16:57;;;;;;;;;;;;;;;19.98;51.48;99784.18;2287765;77;50080;-77
2022/09/17 07:19:59;;;;;;;;;;;;;;;19.95;51.51;99777.38;2285304;77;52414;-77
2022/09/17 07:23:00;;;;;;;;;;;;;;;19.94;51.51;99777.08;2297352;76;50492;-78
2022/09/17 07:26:03;;;;;;;;;;;;;;;19.94;51.54;99777.61;2296900;77;51512;-78
2022/09/17 07:29:05;;;;;;;;;;;;;;;19.95;51.51;99777.90;2297165;77;51564;-77
2022/09/17 07:32:06;;;;;;;;;;;;;;;19.95;51.53;99789.98;2285507;77;50207;-78
2022/09/17 07:35:08;;;;;;;;;;;;;;;19.97;51.50;99783.36;2297081;76;50355;-77
2022/09/17 07:38:10;;;;;;;;;;;;;;;19.97;51.49;99787.91;2311692;76;52508;-78
2022/09/17 07:41:12;;;;;;;;;;;;;;;19.95;51.49;99781.92;2311350;76;50042;-77
2022/09/17 07:44:14;;;;;;;;;;;;;;;19.94;51.50;99778.42;2313466;76;49456;-77
2022/09/17 07:47:15;;;;;;;;;;;;;;;19.97;51.50;99777.17;2294076;76;50699;-77
2022/09/17 07:50:17;;;;;;;;;;;;;;;19.95;51.51;99769.31;2287076;78;50634;-77
2022/09/17 07:53:19;;;;;;;;;;;;;;;19.96;51.50;99772.82;2287210;78;51377;-77
2022/09/17 07:56:20;;;;;;;;;;;;;;;19.97;51.48;99773.96;2286585;77;52716;-77
2022/09/17 07:59:22;;;;;;;;;;;;;;;19.99;51.48;99777.80;2261473;78;52813;-77
2022/09/17 08:02:23;;;;;;;;;;;;;;;19.98;51.51;99776.12;2287228;78;51427;-77
2022/09/17 08:05:25;;;;;;;;;;;;;;;19.96;51.52;99779.05;2287178;78;51538;-77
2022/09/17 08:08:26;;;;;;;;;;;;;;;19.99;51.47;99780.48;2287010;77;50640;-77
2022/09/17 08:11:29;;;;;;;;;;;;;;;19.99;51.45;99785.32;2260354;78;52615;-78
2022/09/17 08:14:30;;;;;;;;;;;;;;;19.99;51.45;99782.64;2287273;77;50425;-77
2022/09/17 08:17:32;;;;;;;;;;;;;;;20.00;51.45;99778.08;2278173;76;50383;-77
2022/09/17 08:20:33;;;;;;;;;;;;;;;19.98;51.45;99780.15;2282343;77;50756;-78
2022/09/17 08:23:35;;;;;;;;;;;;;;;19.98;51.48;99781.49;2237022;77;49648;-77
2022/09/17 08:26:38;;;;;;;;;;;;;;;19.99;51.45;99780.48;2250895;78;51513;-77
2022/09/17 08:29:40;;;;;;;;;;;;;;;19.99;51.46;99775.11;2251244;79;50604;-77
2022/09/17 08:32:41;;;;;;;;;;;;;;;20.01;51.42;99777.03;2251690;79;50690;-77
2022/09/17 08:35:44;;;;;;;;;;;;;;;20.02;51.39;99782.73;2258687;77;52914;-78
2022/09/17 08:38:47;;;;;;;;;;;;;;;20.00;51.43;99782.11;2296537;77;51536;-78
2022/09/17 08:42:06;;;;;;;;;;;;;;;20.03;51.42;99769.59;2297077;77;50329;-77
2022/09/17 08:45:09;;;;;;;;;;;;;;;20.03;51.46;99766.09;2297124;77;51486;-77
2022/09/17 08:48:11;;;;;;;;;;;;;;;20.05;51.43;99770.73;2285251;77;50131;-77
2022/09/17 08:51:15;;;;;;;;;;;;;;;20.05;51.44;99774.23;2297141;77;50403;-77
2022/09/17 08:54:18;;;;;;;;;;;;;;;20.05;51.45;99779.61;2297426;76;50451;-77
2022/09/17 08:57:21;;;;;;;;;;;;;;;20.05;51.49;99780.95;2297149;77;50475;-77
2022/09/17 09:00:23;;;;;;;;;;;;;;;20.06;51.47;99779.09;2285413;77;50281;-78
2022/09/17 09:03:43;;;;;;;;;;;;;;;20.05;51.52;99781.48;2297187;77;51532;-78
2022/09/17 09:06:46;;;;;;;;;;;;;;;20.06;51.46;99781.24;2309401;76;51619;-77
2022/09/17 09:09:55;;;;;;;;;;;;;;;20.06;51.48;99787.14;2316296;75;51571;-77
2022/09/17 09:12:57;;;;;;;;;;;;;;;20.04;51.55;99791.89;2294313;76;52666;-77
2022/09/17 09:16:00;;;;;;;;;;;;;;;20.03;51.56;99792.42;2317656;76;51644;-77
2022/09/17 09:19:15;;;;;;;;;;;;;;;20.03;51.55;99801.82;2317783;76;50391;-77
2022/09/17 09:22:25;;;;;;;;;;;;;;;20.00;51.59;99805.75;2317806;76;52416;-77
2022/09/17 09:25:27;;;;;;;;;;;;;;;20.04;51.54;99808.01;2293680;76;50828;-77
2022/09/17 09:28:33;;;;;;;;;;;;;;;20.03;51.54;99803.16;2317804;76;51523;-77
2022/09/17 09:31:42;;;;;;;;;;;;;;;20.05;51.52;99817.20;2317816;76;51755;-78
2022/09/17 09:34:44;;;;;;;;;;;;;;;20.03;51.49;99811.22;2331444;75;50698;-78
2022/09/17 09:37:47;;;;;;;;;;;;;;;20.04;51.49;99810.20;2346679;75;49623;-78
2022/09/17 09:41:08;;;;;;;;;;;;;;;20.02;51.55;99814.95;2317793;76;51554;-78
2022/09/17 09:44:10;;;;;;;;;;;;;;;20.04;51.50;99819.59;2317846;76;51602;-78
2022/09/17 09:47:14;;;;;;;;;;;;;;;20.04;51.49;99822.28;2317938;76;51561;-78
2022/09/17 09:50:24;;;;;;;;;;;;;;;20.02;51.52;99818.98;2293146;76;51113;-78
2022/09/17 09:53:27;;;;;;;;;;;;;;;20.00;51.56;99821.86;2317328;76;51433;-77
2022/09/17 09:56:33;;;;;;;;;;;;;;;20.00;51.53;99831.27;2317852;76;51534;-78
2022/09/17 09:59:35;;;;;;;;;;;;;;;19.99;51.56;99830.16;2317733;76;51608;-77
2022/09/17 10:02:37;;;;;;;;;;;;;;;19.99;51.55;99831.49;2283587;76;49643;-77
2022/09/17 10:05:39;;;;;;;;;;;;;;;19.98;51.55;99831.98;2321322;76;51545;-78
2022/09/17 10:08:42;;;;;;;;;;;;;;;19.99;51.53;99831.49;2370074;75;51608;-78
2022/09/17 10:11:43;;;;;;;;;;;;;;;19.99;51.50;99832.31;2374475;75;51434;-77
2022/09/17 10:14:45;;;;;;;;;;;;;;;20.00;51.48;99834.47;2376515;74;50086;-78
2022/09/17 10:17:47;;;;;;;;;;;;;;;20.03;51.40;99840.76;2374564;75;51553;-78
2022/09/17 10:20:55;;;;;;;;;;;;;;;20.03;51.42;99827.33;2374597;75;50528;-78
2022/09/17 10:23:57;;;;;;;;;;;;;;;20.03;51.39;99831.36;2374581;75;50838;-78
2022/09/17 10:27:04;;;;;;;;;;;;;;;20.03;51.44;99823.83;2376377;74;50905;-77
2022/09/17 10:30:10;;;;;;;;;;;;;;;20.03;51.42;99834.56;2372078;75;50388;-78
2022/09/17 10:33:13;;;;;;;;;;;;;;;20.03;51.41;99831.36;2374468;75;50473;-78
2022/09/17 10:36:15;;;;;;;;;;;;;;;20.03;51.44;99836.73;2305283;75;50384;-78
2022/09/17 10:39:21;;;;;;;;;;;;;;;20.02;51.45;99837.78;2311831;76;51478;-78
2022/09/17 10:42:23;;;;;;;;;;;;;;;20.01;51.50;99840.14;2297264;77;50660;-78
2022/09/17 10:45:28;;;;;;;;;;;;;;;20.00;51.51;99843.34;2297225;76;50635;-77
2022/09/17 10:48:33;;;;;;;;;;;;;;;19.99;51.51;99852.98;2294361;76;53178;-76
2022/09/17 10:51:35;;;;;;;;;;;;;;;20.00;51.47;99857.30;2317896;76;51530;-77
2022/09/17 10:54:44;;;;;;;;;;;;;;;19.99;51.48;99852.45;2317799;76;50812;-77
2022/09/17 10:58:04;;;;;;;;;;;;;;;19.99;51.46;99849.77;2318172;76;50450;-77
2022/09/17 11:01:24;;;;;;;;;;;;;;;20.00;51.48;99851.93;2318468;76;50321;-77
2022/09/17 11:04:45;;;;;;;;;;;;;;;20.03;51.44;99860.90;2317618;76;50374;-78
2022/09/17 11:07:48;;;;;;;;;;;;;;;20.03;51.41;99847.99;2318154;76;50263;-78
2022/09/17 11:11:06;;;;;;;;;;;;;;;20.01;51.44;99853.56;2317829;76;51528;-77
2022/09/17 11:14:22;;;;;;;;;;;;;;;20.00;51.46;99864.02;2316914;76;51199;-77
2022/09/17 11:17:25;;;;;;;;;;;;;;;19.99;51.45;99857.83;2262366;77;49699;-77
2022/09/17 11:20:45;;;;;;;;;;;;;;;20.00;51.48;99857.30;2279155;78;50544;-78
2022/09/17 11:24:05;;;;;;;;;;;;;;;19.99;51.46;99852.45;2279018;77;50297;-77
2022/09/17 11:27:25;;;;;;;;;;;;;;;20.00;51.48;99846.56;2279184;78;50503;-77
2022/09/17 11:30:27;;;;;;;;;;;;;;;20.02;51.42;99849.86;2281465;77;50130;-78
2022/09/17 11:33:48;;;;;;;;;;;;;;;20.01;51.45;99849.54;2279044;78;50681;-78
2022/09/17 11:37:09;;;;;;;;;;;;;;;19.99;51.45;99844.40;2300376;76;51562;-78
2022/09/17 11:40:12;;;;;;;;;;;;;;;20.00;51.44;99847.38;2317649;76;51470;-78
2022/09/17 11:43:15;;;;;;;;;;;;;;;19.98;51.48;99841.91;2293719;76;52543;-78
2022/09/17 11:46:31;;;;;;;;;;;;;;;19.99;51.50;99852.98;2317681;76;51513;-78
2022/09/17 11:49:40;;;;;;;;;;;;;;;19.98;51.50;99848.09;2317882;76;50551;-78
2022/09/17 11:52:49;;;;;;;;;;;;;;;19.98;51.52;99841.91;2317852;76;50438;-78
2022/09/17 11:55:51;;;;;;;;;;;;;;;20.00;51.46;99842.53;2187462;80;52569;-78
2022/09/17 11:59:11;;;;;;;;;;;;;;;20.01;51.46;99842.82;2212232;79;50784;-78
2022/09/17 12:02:17;;;;;;;;;;;;;;;20.00;51.45;99834.47;2215187;78;51526;-78
2022/09/17 12:05:20;;;;;;;;;;;;;;;20.01;51.39;99832.08;2207399;78;51497;-79
2022/09/17 12:08:22;;;;;;;;;;;;;;;20.00;51.46;99831.78;2227999;78;51680;-78
2022/09/17 12:11:25;;;;;;;;;;;;;;;19.98;51.51;99836.02;2219746;79;50869;-77
2022/09/17 12:14:31;;;;;;;;;;;;;;;19.94;51.55;99829.97;2219412;79;50736;-77
2022/09/17 12:17:39;;;;;;;;;;;;;;;19.93;51.60;99826.95;2219622;79;50883;-77
2022/09/17 12:20:41;;;;;;;;;;;;;;;19.93;51.62;99830.45;2195381;80;51181;-77
2022/09/17 12:23:47;;;;;;;;;;;;;;;19.95;51.53;99827.57;2219639;80;50715;-78
2022/09/17 12:26:56;;;;;;;;;;;;;;;19.94;51.61;99835.34;2219406;79;50595;-78
2022/09/17 12:30:05;;;;;;;;;;;;;;;19.92;51.67;99845.45;2219972;80;50949;-78
2022/09/17 12:33:08;;;;;;;;;;;;;;;19.90;51.72;99833.57;2244236;76;52590;-78
2022/09/17 12:36:14;;;;;;;;;;;;;;;19.93;51.59;99833.66;2298204;76;51560;-77
2022/09/17 12:39:30;;;;;;;;;;;;;;;19.93;51.59;99819.72;2317611;76;51570;-78
2022/09/17 12:42:39;;;;;;;;;;;;;;;19.94;51.54;99820.56;2317491;76;50385;-78
2022/09/17 12:45:45;;;;;;;;;;;;;;;19.95;51.52;99816.83;2292770;76;52999;-78
2022/09/17 12:49:06;;;;;;;;;;;;;;;19.97;51.54;99822.82;2317668;76;51547;-78
2022/09/17 12:52:09;;;;;;;;;;;;;;;19.94;51.63;99811.98;2317878;76;50259;-78
2022/09/17 12:55:18;;;;;;;;;;;;;;;19.97;51.60;99812.90;2317587;76;50443;-78
2022/09/17 12:58:38;;;;;;;;;;;;;;;20.00;51.58;99799.56;2317753;76;50505;-77
2022/09/17 13:01:41;;;;;;;;;;;;;;;20.00;51.58;99799.56;2317659;76;51662;-77
2022/09/17 13:05:01;;;;;;;;;;;;;;;19.98;51.64;99801.63;2311706;76;50792;-77
2022/09/17 13:08:13;;;;;;;;;;;;;;;19.94;51.72;99807.14;2285530;77;50768;-77
2022/09/17 13:11:33;;;;;;;;;;;;;;;19.93;51.75;99808.16;2255733;78;54360;-77
2022/09/17 13:14:52;;;;;;;;;;;;;;;19.94;51.72;99803.11;2279004;78;51549;-77
2022/09/17 13:18:02;;;;;;;;;;;;;;;19.93;51.74;99808.16;2290685;76;50017;-77
2022/09/17 13:21:05;;;;;;;;;;;;;;;19.92;51.81;99807.86;2307694;76;50385;-77
2022/09/17 13:24:14;;;;;;;;;;;;;;;19.96;51.68;99812.61;2293737;76;50094;-77
2022/09/17 13:27:25;;;;;;;;;;;;;;;20.00;51.61;99800.38;2318507;76;51705;-78
2022/09/17 13:30:27;;;;;;;;;;;;;;;20.07;51.50;99802.23;2317887;76;50437;-78
2022/09/17 13:33:47;;;;;;;;;;;;;;;20.06;51.55;99800.56;2317265;76;50380;-78
2022/09/17 13:36:52;;;;;;;;;;;;;;;20.08;51.53;99807.38;2319768;76;49616;-78
2022/09/17 13:39:53;;;;;;;;;;;;;;;20.06;51.54;99808.10;2317676;76;51456;-77
2022/09/17 13:42:55;;;;;;;;;;;;;;;20.08;51.55;99806.56;2317693;76;51574;-77
2022/09/17 13:46:03;;;;;;;;;;;;;;;20.09;51.53;99799.64;2317459;76;50919;-77
2022/09/17 13:49:05;;;;;;;;;;;;;;;20.10;51.53;99790.53;2288578;76;49878;-77
2022/09/17 13:52:07;;;;;;;;;;;;;;;20.09;51.57;99796.95;2325622;76;50454;-77
2022/09/17 13:55:09;;;;;;;;;;;;;;;20.09;51.61;99792.92;2325423;76;51600;-77
2022/09/17 13:58:15;;;;;;;;;;;;;;;20.11;51.58;99796.72;2325847;76;50398;-77
2022/09/17 14:01:16;;;;;;;;;;;;;;;20.11;51.62;99802.09;2285439;76;51067;-77
2022/09/17 14:04:36;;;;;;;;;;;;;;;20.08;51.74;99796.63;2325191;76;50381;-77
2022/09/17 14:07:39;;;;;;;;;;;;;;;20.08;51.76;99791.27;2325720;76;50539;-77
2022/09/17 14:10:42;;;;;;;;;;;;;;;20.07;51.79;99790.97;2325680;76;50453;-78
2022/09/17 14:13:43;;;;;;;;;;;;;;;20.08;51.78;99785.08;2284663;76;50968;-77
2022/09/17 14:16:46;;;;;;;;;;;;;;;20.05;51.85;99798.41;2324037;76;51590;-77
2022/09/17 14:19:47;;;;;;;;;;;;;;;20.04;51.86;99795.43;2314595;75;49907;-78
2022/09/17 14:22:59;;;;;;;;;;;;;;;20.05;51.84;99792.22;2287418;78;51501;-78
2022/09/17 14:26:01;;;;;;;;;;;;;;;20.03;51.85;99789.73;2286620;77;51057;-78
2022/09/17 14:29:07;;;;;;;;;;;;;;;20.04;51.81;99783.34;2287445;78;50748;-78
2022/09/17 14:32:11;;;;;;;;;;;;;;;20.07;51.78;99797.69;2312124;75;50569;-77
2022/09/17 14:35:13;;;;;;;;;;;;;;;20.04;51.80;99794.09;2373760;75;50739;-78
2022/09/17 14:38:19;;;;;;;;;;;;;;;20.03;51.84;99784.89;2292844;75;50447;-77
2022/09/17 14:41:22;;;;;;;;;;;;;;;20.02;51.81;99809.58;2250736;79;51564;-77
2022/09/17 14:44:31;;;;;;;;;;;;;;;20.00;51.84;99808.97;2250835;79;50394;-77
2022/09/17 14:47:30;;;;;;;;;;;;;;;20.04;51.77;99814.72;2251584;78;22440;-78
2022/09/17 14:50:32;;;;;;;;;;;;;;;20.04;51.77;99824.12;2256673;77;49495;-78
2022/09/17 14:53:33;;;;;;;;;;;;;;;20.04;51.74;99819.59;2250932;79;51504;-78
2022/09/17 14:56:36;;;;;;;;;;;;;;;20.04;51.72;99821.44;2251014;78;50155;-78
2022/09/17 14:59:40;;;;;;;;;;;;;;;20.03;51.75;99813.09;2251017;79;50758;-78
2022/09/17 15:02:45;;;;;;;;;;;;;;;20.04;51.76;99815.57;2237309;79;51182;-77
2022/09/17 15:05:49;;;;;;;;;;;;;;;20.03;51.73;99808.53;2261506;78;51443;-77
2022/09/17 15:08:50;;;;;;;;;;;;;;;20.06;51.72;99814.81;2273199;76;22325;-77
2022/09/17 15:11:55;;;;;;;;;;;;;;;20.07;51.73;99822.38;2261918;78;51629;-77
2022/09/17 15:14:57;;;;;;;;;;;;;;;20.06;51.77;99822.05;2282606;77;51095;-77
2022/09/17 15:17:58;;;;;;;;;;;;;;;20.06;51.76;99812.13;2250914;79;52455;-77
2022/09/17 15:21:00;;;;;;;;;;;;;;;20.07;51.79;99808.42;2250814;79;51487;-77
2022/09/17 15:24:03;;;;;;;;;;;;;;;20.06;51.82;99813.47;2250921;79;51499;-77
2022/09/17 15:27:21;;;;;;;;;;;;;;;20.06;51.88;99818.84;2237310;78;52542;-78
2022/09/17 15:30:23;;;;;;;;;;;;;;;20.06;51.86;99810.78;2212483;78;22422;-78
2022/09/17 15:33:24;;;;;;;;;;;;;;;20.07;51.89;99813.80;2216648;78;51614;-77
2022/09/17 15:36:30;;;;;;;;;;;;;;;20.08;51.88;99820.80;2221773;78;51536;-77
2022/09/17 15:39:33;;;;;;;;;;;;;;;20.06;51.91;99822.87;2250138;78;49828;-77
2022/09/17 15:42:35;;;;;;;;;;;;;;;20.08;51.94;99814.61;2273583;78;50469;-77
2022/09/17 15:45:38;;;;;;;;;;;;;;;20.08;51.93;99814.09;2275056;78;50227;-77
2022/09/17 15:48:40;;;;;;;;;;;;;;;20.08;51.84;99814.09;2248211;78;51540;-77
2022/09/17 15:51:41;;;;;;;;;;;;;;;20.09;51.87;99821.62;2274335;78;50122;-77
2022/09/17 15:54:43;;;;;;;;;;;;;;;20.07;51.88;99807.08;2275824;78;51478;-76
2022/09/17 15:57:45;;;;;;;;;;;;;;;20.08;51.84;99809.24;2248765;78;51532;-76
2022/09/17 16:00:46;;;;;;;;;;;;;;;20.05;51.90;99809.15;2275417;78;51538;-76